sensor_id;sensor_type;location;lat;lon;timestamp;P1;durP1;ratioP1;P2;durP2;ratioP2
11655;SDS011;5884;43.618;1.438;2022-09-29T04:47:39;1.53;;;0.60;;
11655;SDS011;5884;43.618;1.438;2022-09-29T04:50:07;2.10;;;0.70;;
11655;SDS011;5884;43.618;1.438;2022-09-29T04:52:34;2.20;;;0.57;;
11655;SDS011;5884;43.618;1.438;2022-09-29T04:55:02;2.83;;;0.73;;
11655;SDS011;5884;43.618;1.438;2022-09-29T04:57:30;3.37;;;0.77;;
11655;SDS011;5884;43.618;1.438;2022-09-29T04:59:57;1.17;;;0.60;;
11655;SDS011;5884;43.618;1.438;2022-09-29T05:02:24;2.00;;;0.63;;
11655;SDS011;5884;43.618;1.438;2022-09-29T05:04:53;1.80;;;0.70;;
11655;SDS011;5884;43.618;1.438;2022-09-29T05:07:20;1.27;;;0.60;;
11655;SDS011;5884;43.618;1.438;2022-09-29T05:09:47;2.50;;;0.70;;
11655;SDS011;5884;43.618;1.438;2022-09-29T05:12:15;3.23;;;0.60;;
11655;SDS011;5884;43.618;1.438;2022-09-29T05:14:42;1.07;;;0.53;;
11655;SDS011;5884;43.618;1.438;2022-09-29T05:17:09;3.23;;;0.60;;
11655;SDS011;5884;43.618;1.438;2022-09-29T05:19:37;3.27;;;0.80;;
11655;SDS011;5884;43.618;1.438;2022-09-29T05:22:05;1.20;;;0.50;;
11655;SDS011;5884;43.618;1.438;2022-09-29T05:24:33;0.90;;;0.60;;
11655;SDS011;5884;43.618;1.438;2022-09-29T05:27:00;1.03;;;0.60;;
11655;SDS011;5884;43.618;1.438;2022-09-29T05:29:27;1.40;;;0.50;;
11655;SDS011;5884;43.618;1.438;2022-09-29T05:31:54;1.53;;;0.60;;
11655;SDS011;5884;43.618;1.438;2022-09-29T05:34:22;2.73;;;0.80;;
11655;SDS011;5884;43.618;1.438;2022-09-29T05:36:49;0.87;;;0.53;;
11655;SDS011;5884;43.618;1.438;2022-09-29T05:39:18;2.07;;;0.80;;
11655;SDS011;5884;43.618;1.438;2022-09-29T05:41:46;1.37;;;0.73;;
11655;SDS011;5884;43.618;1.438;2022-09-29T05:44:14;3.40;;;0.80;;
11655;SDS011;5884;43.618;1.438;2022-09-29T05:46:41;3.23;;;0.80;;
11655;SDS011;5884;43.618;1.438;2022-09-29T05:49:09;1.13;;;0.50;;
11655;SDS011;5884;43.618;1.438;2022-09-29T05:51:36;1.50;;;0.70;;
11655;SDS011;5884;43.618;1.438;2022-09-29T05:54:03;1.63;;;0.70;;
11655;SDS011;5884;43.618;1.438;2022-09-29T05:56:32;1.43;;;0.50;;
11655;SDS011;5884;43.618;1.438;2022-09-29T05:58:59;1.87;;;0.67;;
11655;SDS011;5884;43.618;1.438;2022-09-29T06:01:26;1.97;;;0.80;;
11655;SDS011;5884;43.618;1.438;2022-09-29T06:03:54;1.53;;;0.70;;
11655;SDS011;5884;43.618;1.438;2022-09-29T06:06:23;1.40;;;0.67;;
11655;SDS011;5884;43.618;1.438;2022-09-29T06:08:53;3.60;;;0.80;;
11655;SDS011;5884;43.618;1.438;2022-09-29T06:11:23;2.10;;;0.80;;
11655;SDS011;5884;43.618;1.438;2022-09-29T06:13:54;3.33;;;0.77;;
11655;SDS011;5884;43.618;1.438;2022-09-29T09:35:42;2.10;;;0.70;;
11655;SDS011;5884;43.618;1.438;2022-09-29T09:38:19;1.70;;;0.73;;
11655;SDS011;5884;43.618;1.438;2022-09-29T09:40:53;2.10;;;0.60;;
11655;SDS011;5884;43.618;1.438;2022-09-29T09:43:23;2.63;;;0.43;;
11655;SDS011;5884;43.618;1.438;2022-09-29T09:45:56;1.67;;;0.70;;
11655;SDS011;5884;43.618;1.438;2022-09-29T09:48:29;3.20;;;0.83;;
11655;SDS011;5884;43.618;1.438;2022-09-29T09:51:15;1.80;;;0.60;;
11655;SDS011;5884;43.618;1.438;2022-09-29T09:53:55;2.50;;;0.70;;
11655;SDS011;5884;43.618;1.438;2022-09-29T09:56:34;2.67;;;0.70;;
11655;SDS011;5884;43.618;1.438;2022-09-29T09:59:29;3.43;;;0.90;;
11655;SDS011;5884;43.618;1.438;2022-09-29T10:02:07;2.67;;;0.67;;
11655;SDS011;5884;43.618;1.438;2022-09-29T10:04:44;1.37;;;0.70;;
11655;SDS011;5884;43.618;1.438;2022-09-29T10:07:17;1.90;;;0.50;;
11655;SDS011;5884;43.618;1.438;2022-09-29T10:09:46;1.27;;;0.80;;
11655;SDS011;5884;43.618;1.438;2022-09-29T10:12:14;3.67;;;0.70;;
11655;SDS011;5884;43.618;1.438;2022-09-29T10:14:44;3.50;;;0.97;;
11655;SDS011;5884;43.618;1.438;2022-09-29T10:17:17;4.30;;;0.90;;
11655;SDS011;5884;43.618;1.438;2022-09-29T10:19:52;5.23;;;1.10;;
11655;SDS011;5884;43.618;1.438;2022-09-29T10:22:26;2.30;;;0.70;;
11655;SDS011;5884;43.618;1.438;2022-09-29T10:25:04;2.20;;;0.90;;
11655;SDS011;5884;43.618;1.438;2022-09-29T10:27:38;2.27;;;0.97;;
11655;SDS011;5884;43.618;1.438;2022-09-29T10:30:15;1.63;;;0.90;;
11655;SDS011;5884;43.618;1.438;2022-09-29T10:32:45;2.47;;;1.00;;
11655;SDS011;5884;43.618;1.438;2022-09-29T10:35:17;2.07;;;1.03;;
11655;SDS011;5884;43.618;1.438;2022-09-29T10:37:52;1.37;;;0.87;;
11655;SDS011;5884;43.618;1.438;2022-09-29T10:40:27;1.63;;;0.90;;
11655;SDS011;5884;43.618;1.438;2022-09-29T10:42:55;4.13;;;1.03;;
11655;SDS011;5884;43.618;1.438;2022-09-29T10:45:23;1.53;;;0.80;;
11655;SDS011;5884;43.618;1.438;2022-09-29T10:48:06;2.83;;;1.07;;
11655;SDS011;5884;43.618;1.438;2022-09-29T10:50:47;2.33;;;1.10;;
11655;SDS011;5884;43.618;1.438;2022-09-29T10:53:20;3.13;;;2.20;;
11655;SDS011;5884;43.618;1.438;2022-09-29T10:55:58;3.03;;;1.00;;
11655;SDS011;5884;43.618;1.438;2022-09-29T10:58:31;1.63;;;0.97;;
11655;SDS011;5884;43.618;1.438;2022-09-29T11:01:01;3.33;;;1.00;;
11655;SDS011;5884;43.618;1.438;2022-09-29T11:03:32;1.23;;;0.80;;
11655;SDS011;5884;43.618;1.438;2022-09-29T11:06:01;1.17;;;0.90;;
11655;SDS011;5884;43.618;1.438;2022-09-29T11:08:33;2.13;;;1.00;;
11655;SDS011;5884;43.618;1.438;2022-09-29T11:11:26;1.37;;;0.60;;
11655;SDS011;5884;43.618;1.438;2022-09-29T11:13:56;1.60;;;0.90;;
11655;SDS011;5884;43.618;1.438;2022-09-29T11:16:28;2.03;;;0.80;;
11655;SDS011;5884;43.618;1.438;2022-09-29T11:19:02;1.90;;;0.60;;
11655;SDS011;5884;43.618;1.438;2022-09-29T11:31:03;2.40;;;0.80;;
11655;SDS011;5884;43.618;1.438;2022-09-29T11:33:50;0.83;;;0.50;;
11655;SDS011;5884;43.618;1.438;2022-09-29T11:36:33;1.00;;;0.60;;
11655;SDS011;5884;43.618;1.438;2022-09-29T11:39:11;1.50;;;0.60;;
11655;SDS011;5884;43.618;1.438;2022-09-29T11:41:57;1.07;;;0.63;;
11655;SDS011;5884;43.618;1.438;2022-09-29T11:44:43;1.87;;;0.70;;
11655;SDS011;5884;43.618;1.438;2022-09-29T11:50:29;1.00;;;0.60;;
11655;SDS011;5884;43.618;1.438;2022-09-29T11:53:15;1.30;;;0.50;;
11655;SDS011;5884;43.618;1.438;2022-09-29T11:56:00;1.13;;;0.50;;
11655;SDS011;5884;43.618;1.438;2022-09-29T11:58:49;1.40;;;0.50;;
11655;SDS011;5884;43.618;1.438;2022-09-29T12:01:38;2.13;;;0.70;;
11655;SDS011;5884;43.618;1.438;2022-09-29T12:04:22;2.63;;;0.50;;
11655;SDS011;5884;43.618;1.438;2022-09-29T12:07:03;1.47;;;0.47;;
11655;SDS011;5884;43.618;1.438;2022-09-29T12:09:52;2.20;;;0.70;;
11655;SDS011;5884;43.618;1.438;2022-09-29T12:12:34;1.13;;;0.70;;
11655;SDS011;5884;43.618;1.438;2022-09-29T12:15:26;0.73;;;0.47;;
11655;SDS011;5884;43.618;1.438;2022-09-29T12:18:07;1.83;;;0.60;;
11655;SDS011;5884;43.618;1.438;2022-09-29T12:20:41;0.67;;;0.40;;
11655;SDS011;5884;43.618;1.438;2022-09-29T12:23:11;2.20;;;0.50;;
11655;SDS011;5884;43.618;1.438;2022-09-29T12:25:51;1.87;;;0.50;;
11655;SDS011;5884;43.618;1.438;2022-09-29T12:28:26;0.83;;;0.40;;
11655;SDS011;5884;43.618;1.438;2022-09-29T12:31:02;3.30;;;0.50;;
11655;SDS011;5884;43.618;1.438;2022-09-29T12:33:37;2.10;;;0.40;;
11655;SDS011;5884;43.618;1.438;2022-09-29T12:36:13;3.90;;;0.50;;
11655;SDS011;5884;43.618;1.438;2022-09-29T12:39:13;2.33;;;0.80;;
11655;SDS011;5884;43.618;1.438;2022-09-29T12:41:52;1.00;;;0.40;;
11655;SDS011;5884;43.618;1.438;2022-09-29T12:44:48;1.77;;;0.63;;
11655;SDS011;5884;43.618;1.438;2022-09-29T12:47:25;1.63;;;0.60;;
11655;SDS011;5884;43.618;1.438;2022-09-29T12:50:10;4.67;;;0.87;;
11655;SDS011;5884;43.618;1.438;2022-09-29T12:52:45;1.40;;;0.70;;
11655;SDS011;5884;43.618;1.438;2022-09-29T12:55:22;2.53;;;0.73;;
11655;SDS011;5884;43.618;1.438;2022-09-29T12:57:56;0.83;;;0.50;;
11655;SDS011;5884;43.618;1.438;2022-09-29T13:00:28;1.10;;;0.70;;
11655;SDS011;5884;43.618;1.438;2022-09-29T13:06:17;0.97;;;0.43;;
11655;SDS011;5884;43.618;1.438;2022-09-29T13:09:19;2.20;;;0.90;;
11655;SDS011;5884;43.618;1.438;2022-09-29T13:12:32;1.67;;;0.50;;
11655;SDS011;5884;43.618;1.438;2022-09-29T13:15:32;2.50;;;0.50;;
11655;SDS011;5884;43.618;1.438;2022-09-29T13:18:16;0.87;;;0.40;;
11655;SDS011;5884;43.618;1.438;2022-09-29T13:21:08;0.97;;;0.60;;
11655;SDS011;5884;43.618;1.438;2022-09-29T13:23:51;1.27;;;0.50;;
11655;SDS011;5884;43.618;1.438;2022-09-29T13:29:43;4.17;;;0.97;;
11655;SDS011;5884;43.618;1.438;2022-09-29T13:32:14;1.63;;;1.53;;
11655;SDS011;5884;43.618;1.438;2022-09-29T13:34:47;2.10;;;0.90;;
11655;SDS011;5884;43.618;1.438;2022-09-29T13:37:20;2.57;;;0.60;;
11655;SDS011;5884;43.618;1.438;2022-09-29T13:39:51;1.70;;;0.60;;
11655;SDS011;5884;43.618;1.438;2022-09-29T13:42:26;1.10;;;0.50;;
11655;SDS011;5884;43.618;1.438;2022-09-29T13:51:23;1.97;;;0.80;;
11655;SDS011;5884;43.618;1.438;2022-09-29T13:54:19;2.87;;;0.70;;
11655;SDS011;5884;43.618;1.438;2022-09-29T13:56:50;2.30;;;0.63;;
11655;SDS011;5884;43.618;1.438;2022-09-29T14:03:03;1.73;;;0.50;;
11655;SDS011;5884;43.618;1.438;2022-09-29T14:05:52;2.13;;;0.60;;
11655;SDS011;5884;43.618;1.438;2022-09-29T14:08:25;2.80;;;0.80;;
11655;SDS011;5884;43.618;1.438;2022-09-29T14:11:01;2.20;;;0.60;;
11655;SDS011;5884;43.618;1.438;2022-09-29T14:13:39;4.40;;;0.60;;
11655;SDS011;5884;43.618;1.438;2022-09-29T14:16:15;1.10;;;0.43;;
11655;SDS011;5884;43.618;1.438;2022-09-29T14:19:09;2.57;;;0.50;;
11655;SDS011;5884;43.618;1.438;2022-09-29T14:21:59;2.23;;;0.60;;
11655;SDS011;5884;43.618;1.438;2022-09-29T14:24:45;1.97;;;0.40;;
11655;SDS011;5884;43.618;1.438;2022-09-29T14:27:24;2.87;;;0.57;;
11655;SDS011;5884;43.618;1.438;2022-09-29T14:30:13;1.73;;;0.43;;
11655;SDS011;5884;43.618;1.438;2022-09-29T14:32:50;3.90;;;0.67;;
11655;SDS011;5884;43.618;1.438;2022-09-29T14:35:22;1.43;;;0.70;;
11655;SDS011;5884;43.618;1.438;2022-09-29T14:38:00;1.57;;;0.53;;
11655;SDS011;5884;43.618;1.438;2022-09-29T14:40:33;2.10;;;0.80;;
11655;SDS011;5884;43.618;1.438;2022-09-29T14:49:13;1.63;;;0.60;;
11655;SDS011;5884;43.618;1.438;2022-09-29T14:52:19;1.70;;;0.50;;
11655;SDS011;5884;43.618;1.438;2022-09-29T14:54:58;1.27;;;0.60;;
11655;SDS011;5884;43.618;1.438;2022-09-29T14:57:45;2.03;;;0.60;;
11655;SDS011;5884;43.618;1.438;2022-09-29T15:00:34;1.93;;;0.70;;
11655;SDS011;5884;43.618;1.438;2022-09-29T15:03:17;3.03;;;0.70;;
11655;SDS011;5884;43.618;1.438;2022-09-29T15:06:02;1.20;;;0.50;;
11655;SDS011;5884;43.618;1.438;2022-09-29T15:08:32;1.03;;;0.50;;
11655;SDS011;5884;43.618;1.438;2022-09-29T15:11:00;2.37;;;0.70;;
11655;SDS011;5884;43.618;1.438;2022-09-29T15:13:32;2.70;;;0.60;;
11655;SDS011;5884;43.618;1.438;2022-09-29T15:16:01;1.50;;;0.83;;
11655;SDS011;5884;43.618;1.438;2022-09-29T15:18:40;3.07;;;0.77;;
11655;SDS011;5884;43.618;1.438;2022-09-29T15:21:26;2.20;;;0.80;;
11655;SDS011;5884;43.618;1.438;2022-09-29T15:27:01;1.77;;;0.90;;
11655;SDS011;5884;43.618;1.438;2022-09-29T15:29:34;2.63;;;0.93;;
11655;SDS011;5884;43.618;1.438;2022-09-29T15:32:02;5.73;;;0.90;;
11655;SDS011;5884;43.618;1.438;2022-09-29T15:34:30;4.57;;;1.30;;
11655;SDS011;5884;43.618;1.438;2022-09-29T15:36:58;2.23;;;1.00;;
11655;SDS011;5884;43.618;1.438;2022-09-29T15:39:39;2.77;;;0.90;;
11655;SDS011;5884;43.618;1.438;2022-09-29T15:42:11;4.27;;;0.83;;
11655;SDS011;5884;43.618;1.438;2022-09-29T15:44:45;3.87;;;1.13;;
11655;SDS011;5884;43.618;1.438;2022-09-29T15:47:22;3.90;;;1.07;;
11655;SDS011;5884;43.618;1.438;2022-09-29T15:49:55;2.57;;;1.03;;
11655;SDS011;5884;43.618;1.438;2022-09-29T15:52:22;2.00;;;1.00;;
11655;SDS011;5884;43.618;1.438;2022-09-29T15:54:55;3.17;;;1.40;;
11655;SDS011;5884;43.618;1.438;2022-09-29T15:57:28;3.30;;;1.20;;
11655;SDS011;5884;43.618;1.438;2022-09-29T16:03:24;4.63;;;1.00;;
11655;SDS011;5884;43.618;1.438;2022-09-29T16:06:01;2.47;;;1.10;;
11655;SDS011;5884;43.618;1.438;2022-09-29T16:08:33;3.27;;;0.97;;
11655;SDS011;5884;43.618;1.438;2022-09-29T16:11:04;1.93;;;1.00;;
11655;SDS011;5884;43.618;1.438;2022-09-29T16:13:35;4.17;;;1.10;;
11655;SDS011;5884;43.618;1.438;2022-09-29T16:16:07;2.10;;;0.90;;
11655;SDS011;5884;43.618;1.438;2022-09-29T16:18:38;3.63;;;0.97;;
11655;SDS011;5884;43.618;1.438;2022-09-29T16:21:09;1.67;;;1.07;;
11655;SDS011;5884;43.618;1.438;2022-09-29T16:23:40;2.43;;;1.03;;
11655;SDS011;5884;43.618;1.438;2022-09-29T16:26:14;3.30;;;1.60;;
11655;SDS011;5884;43.618;1.438;2022-09-29T16:29:06;3.73;;;1.20;;
11655;SDS011;5884;43.618;1.438;2022-09-29T16:31:52;2.83;;;1.63;;
11655;SDS011;5884;43.618;1.438;2022-09-29T16:34:26;5.53;;;1.70;;
11655;SDS011;5884;43.618;1.438;2022-09-29T16:36:57;3.97;;;1.10;;
11655;SDS011;5884;43.618;1.438;2022-09-29T16:39:28;4.83;;;1.77;;
11655;SDS011;5884;43.618;1.438;2022-09-29T16:41:58;3.77;;;1.40;;
11655;SDS011;5884;43.618;1.438;2022-09-29T16:44:31;2.93;;;1.60;;
11655;SDS011;5884;43.618;1.438;2022-09-29T16:47:03;1.70;;;1.20;;
11655;SDS011;5884;43.618;1.438;2022-09-29T16:49:43;1.97;;;1.37;;
11655;SDS011;5884;43.618;1.438;2022-09-29T16:52:14;3.77;;;1.73;;
11655;SDS011;5884;43.618;1.438;2022-09-29T16:54:47;4.27;;;1.50;;
11655;SDS011;5884;43.618;1.438;2022-09-29T16:57:25;3.87;;;1.27;;
11655;SDS011;5884;43.618;1.438;2022-09-29T16:59:54;3.70;;;1.40;;
11655;SDS011;5884;43.618;1.438;2022-09-29T17:02:27;2.37;;;1.40;;
11655;SDS011;5884;43.618;1.438;2022-09-29T17:04:55;3.23;;;1.30;;
11655;SDS011;5884;43.618;1.438;2022-09-29T17:07:23;3.07;;;1.63;;
11655;SDS011;5884;43.618;1.438;2022-09-29T17:09:52;3.13;;;1.30;;
11655;SDS011;5884;43.618;1.438;2022-09-29T17:12:22;1.97;;;1.17;;
11655;SDS011;5884;43.618;1.438;2022-09-29T17:14:53;2.07;;;1.40;;
11655;SDS011;5884;43.618;1.438;2022-09-29T17:17:22;2.90;;;1.43;;
11655;SDS011;5884;43.618;1.438;2022-09-29T17:19:53;2.07;;;1.40;;
11655;SDS011;5884;43.618;1.438;2022-09-29T17:22:26;3.33;;;1.47;;
11655;SDS011;5884;43.618;1.438;2022-09-29T17:24:56;2.77;;;1.40;;
11655;SDS011;5884;43.618;1.438;2022-09-29T17:27:24;4.30;;;1.50;;
11655;SDS011;5884;43.618;1.438;2022-09-29T17:30:10;4.53;;;1.50;;
11655;SDS011;5884;43.618;1.438;2022-09-29T17:32:44;4.60;;;1.70;;
11655;SDS011;5884;43.618;1.438;2022-09-29T17:35:12;3.07;;;1.83;;
11655;SDS011;5884;43.618;1.438;2022-09-29T17:37:41;4.00;;;1.80;;
11655;SDS011;5884;43.618;1.438;2022-09-29T17:40:13;4.73;;;2.00;;
11655;SDS011;5884;43.618;1.438;2022-09-29T17:42:46;4.50;;;2.83;;
11655;SDS011;5884;43.618;1.438;2022-09-29T17:45:14;7.57;;;2.70;;
11655;SDS011;5884;43.618;1.438;2022-09-29T17:47:44;3.90;;;2.53;;
11655;SDS011;5884;43.618;1.438;2022-09-29T17:50:16;6.10;;;2.30;;
11655;SDS011;5884;43.618;1.438;2022-09-29T17:52:50;3.10;;;2.20;;
11655;SDS011;5884;43.618;1.438;2022-09-29T17:55:17;3.27;;;1.90;;
11655;SDS011;5884;43.618;1.438;2022-09-29T17:57:46;5.67;;;2.20;;
11655;SDS011;5884;43.618;1.438;2022-09-29T18:00:14;3.20;;;2.20;;
11655;SDS011;5884;43.618;1.438;2022-09-29T18:02:47;4.57;;;3.20;;
11655;SDS011;5884;43.618;1.438;2022-09-29T18:05:15;3.70;;;2.10;;
11655;SDS011;5884;43.618;1.438;2022-09-29T18:07:46;4.23;;;2.60;;
11655;SDS011;5884;43.618;1.438;2022-09-29T18:10:16;4.20;;;2.53;;
11655;SDS011;5884;43.618;1.438;2022-09-29T18:12:46;4.50;;;2.20;;
11655;SDS011;5884;43.618;1.438;2022-09-29T18:15:13;5.30;;;2.40;;
11655;SDS011;5884;43.618;1.438;2022-09-29T18:17:41;3.53;;;1.97;;
11655;SDS011;5884;43.618;1.438;2022-09-29T18:20:14;4.47;;;2.20;;
11655;SDS011;5884;43.618;1.438;2022-09-29T18:22:44;6.57;;;2.43;;
11655;SDS011;5884;43.618;1.438;2022-09-29T18:25:12;6.07;;;3.00;;
11655;SDS011;5884;43.618;1.438;2022-09-29T18:27:41;4.60;;;2.03;;
11655;SDS011;5884;43.618;1.438;2022-09-29T18:30:16;6.47;;;2.53;;
11655;SDS011;5884;43.618;1.438;2022-09-29T18:32:47;5.57;;;1.90;;
11655;SDS011;5884;43.618;1.438;2022-09-29T18:35:18;3.13;;;1.10;;
11655;SDS011;5884;43.618;1.438;2022-09-29T18:37:46;2.27;;;1.10;;
11655;SDS011;5884;43.618;1.438;2022-09-29T18:40:14;4.07;;;2.37;;
11655;SDS011;5884;43.618;1.438;2022-09-29T18:42:43;4.40;;;2.17;;
11655;SDS011;5884;43.618;1.438;2022-09-29T18:45:14;3.13;;;1.80;;
11655;SDS011;5884;43.618;1.438;2022-09-29T18:47:47;4.70;;;2.10;;
11655;SDS011;5884;43.618;1.438;2022-09-29T18:50:16;3.90;;;2.50;;
11655;SDS011;5884;43.618;1.438;2022-09-29T18:52:47;4.63;;;2.40;;
11655;SDS011;5884;43.618;1.438;2022-09-29T18:55:17;4.43;;;3.27;;
11655;SDS011;5884;43.618;1.438;2022-09-29T18:57:47;5.90;;;3.07;;
11655;SDS011;5884;43.618;1.438;2022-09-29T19:00:16;6.30;;;3.87;;
11655;SDS011;5884;43.618;1.438;2022-09-29T19:02:45;4.57;;;2.90;;
11655;SDS011;5884;43.618;1.438;2022-09-29T19:05:14;3.13;;;2.10;;
11655;SDS011;5884;43.618;1.438;2022-09-29T19:07:48;5.33;;;3.00;;
11655;SDS011;5884;43.618;1.438;2022-09-29T19:10:19;6.60;;;3.20;;
11655;SDS011;5884;43.618;1.438;2022-09-29T19:12:48;5.63;;;3.63;;
11655;SDS011;5884;43.618;1.438;2022-09-29T19:15:16;5.50;;;3.20;;
11655;SDS011;5884;43.618;1.438;2022-09-29T19:17:45;5.63;;;2.50;;
11655;SDS011;5884;43.618;1.438;2022-09-29T19:20:14;2.70;;;1.50;;
11655;SDS011;5884;43.618;1.438;2022-09-29T19:22:46;4.83;;;1.43;;
11655;SDS011;5884;43.618;1.438;2022-09-29T19:25:16;3.77;;;1.30;;
11655;SDS011;5884;43.618;1.438;2022-09-29T19:27:46;3.03;;;1.60;;
11655;SDS011;5884;43.618;1.438;2022-09-29T19:30:14;5.20;;;2.70;;
11655;SDS011;5884;43.618;1.438;2022-09-29T19:32:44;5.87;;;3.17;;
11655;SDS011;5884;43.618;1.438;2022-09-29T19:35:13;5.50;;;3.40;;
11655;SDS011;5884;43.618;1.438;2022-09-29T19:37:45;5.63;;;2.80;;
11655;SDS011;5884;43.618;1.438;2022-09-29T19:40:14;2.00;;;1.60;;
11655;SDS011;5884;43.618;1.438;2022-09-29T19:42:45;2.77;;;1.70;;
11655;SDS011;5884;43.618;1.438;2022-09-29T19:45:13;1.77;;;1.30;;
11655;SDS011;5884;43.618;1.438;2022-09-29T19:47:40;3.17;;;1.33;;
11655;SDS011;5884;43.618;1.438;2022-09-29T19:50:08;5.20;;;1.20;;
11655;SDS011;5884;43.618;1.438;2022-09-29T19:52:55;2.40;;;1.20;;
11655;SDS011;5884;43.618;1.438;2022-09-29T19:55:22;3.10;;;1.60;;
11655;SDS011;5884;43.618;1.438;2022-09-29T19:57:49;3.00;;;1.40;;
11655;SDS011;5884;43.618;1.438;2022-09-29T20:00:17;4.20;;;1.40;;
11655;SDS011;5884;43.618;1.438;2022-09-29T20:02:46;4.50;;;1.47;;
11655;SDS011;5884;43.618;1.438;2022-09-29T20:05:14;4.13;;;1.57;;
11655;SDS011;5884;43.618;1.438;2022-09-29T20:07:42;2.10;;;1.30;;
11655;SDS011;5884;43.618;1.438;2022-09-29T20:10:12;5.00;;;1.50;;
11655;SDS011;5884;43.618;1.438;2022-09-29T20:12:41;3.10;;;1.30;;
11655;SDS011;5884;43.618;1.438;2022-09-29T20:15:10;4.50;;;1.80;;
11655;SDS011;5884;43.618;1.438;2022-09-29T20:17:38;7.20;;;1.60;;
11655;SDS011;5884;43.618;1.438;2022-09-29T20:20:08;4.47;;;1.70;;
11655;SDS011;5884;43.618;1.438;2022-09-29T20:22:37;2.10;;;1.03;;
11655;SDS011;5884;43.618;1.438;2022-09-29T20:25:05;1.47;;;0.97;;
11655;SDS011;5884;43.618;1.438;2022-09-29T20:27:35;3.60;;;1.37;;
11655;SDS011;5884;43.618;1.438;2022-09-29T20:30:04;1.27;;;1.10;;
11655;SDS011;5884;43.618;1.438;2022-09-29T20:32:33;4.53;;;1.10;;
11655;SDS011;5884;43.618;1.438;2022-09-29T20:35:00;1.43;;;1.00;;
11655;SDS011;5884;43.618;1.438;2022-09-29T20:37:27;3.53;;;1.40;;
11655;SDS011;5884;43.618;1.438;2022-09-29T20:39:55;2.93;;;1.37;;
11655;SDS011;5884;43.618;1.438;2022-09-29T20:42:23;2.90;;;1.53;;
11655;SDS011;5884;43.618;1.438;2022-09-29T20:44:51;2.90;;;1.57;;
11655;SDS011;5884;43.618;1.438;2022-09-29T20:47:20;4.00;;;1.70;;
11655;SDS011;5884;43.618;1.438;2022-09-29T20:49:49;2.60;;;1.57;;
11655;SDS011;5884;43.618;1.438;2022-09-29T20:52:20;5.40;;;1.73;;
11655;SDS011;5884;43.618;1.438;2022-09-29T20:54:48;1.43;;;1.33;;
11655;SDS011;5884;43.618;1.438;2022-09-29T20:57:15;4.63;;;1.90;;
11655;SDS011;5884;43.618;1.438;2022-09-29T20:59:43;3.23;;;1.80;;
